Mackey, Indiana
Current Conditions -  °F | °C
As of 2:54 AM on Monday 22 Dec 2014 (Local Time) from KEVV Reporting Station
Overcast Overcast  
Wind Chill: 32°   Ceiling: 3000
Heat Index: 36°   Visibility: 9mi
Dew Point: 30°   Wind: 5mph
Humidity: 79%   Direction: 50°NE
Pressure: 29.97"   Gusts: NA
Location:  38.25°N, 87.39°W
Report Text: KEVV 220854Z AUTO 05004KT 9SM OVC030 02/M01 A2997 RMK AO2 SLP151 T00221011 56013
Loading
Personal Weather Stations






























Interactive Weather Map New forecast layout! Learn more

10-Day Weather Forecast

Advertisements
Track Severe Weather on mobile